sensor_id;sensor_type;location;lat;lon;timestamp;P1;durP1;ratioP1;P2;durP2;ratioP2
75073;SDS011;63652;51.526;5.080;2023-07-24T00:02:07;6.50;;;3.58;;
75073;SDS011;63652;51.526;5.080;2023-07-24T00:04:33;7.72;;;3.67;;
75073;SDS011;63652;51.526;5.080;2023-07-24T00:06:59;6.38;;;3.33;;
75073;SDS011;63652;51.526;5.080;2023-07-24T00:09:25;5.88;;;3.17;;
75073;SDS011;63652;51.526;5.080;2023-07-24T00:11:50;5.75;;;2.83;;
75073;SDS011;63652;51.526;5.080;2023-07-24T00:14:16;9.32;;;3.78;;
75073;SDS011;63652;51.526;5.080;2023-07-24T00:16:41;6.00;;;3.33;;
75073;SDS011;63652;51.526;5.080;2023-07-24T00:19:07;7.25;;;3.42;;
75073;SDS011;63652;51.526;5.080;2023-07-24T00:21:32;6.00;;;3.35;;
75073;SDS011;63652;51.526;5.080;2023-07-24T00:23:57;5.20;;;2.90;;
75073;SDS011;63652;51.526;5.080;2023-07-24T00:26:23;6.22;;;3.13;;
75073;SDS011;63652;51.526;5.080;2023-07-24T00:28:48;6.35;;;2.97;;
75073;SDS011;63652;51.526;5.080;2023-07-24T00:31:14;6.70;;;3.05;;
75073;SDS011;63652;51.526;5.080;2023-07-24T00:33:39;8.55;;;3.42;;
75073;SDS011;63652;51.526;5.080;2023-07-24T00:36:04;7.47;;;3.70;;
75073;SDS011;63652;51.526;5.080;2023-07-24T00:38:30;6.32;;;2.88;;
75073;SDS011;63652;51.526;5.080;2023-07-24T00:40:55;7.50;;;3.42;;
75073;SDS011;63652;51.526;5.080;2023-07-24T00:43:21;7.68;;;3.85;;
75073;SDS011;63652;51.526;5.080;2023-07-24T00:45:46;6.15;;;2.83;;
75073;SDS011;63652;51.526;5.080;2023-07-24T00:48:12;7.60;;;3.90;;
75073;SDS011;63652;51.526;5.080;2023-07-24T00:50:37;7.20;;;3.60;;
75073;SDS011;63652;51.526;5.080;2023-07-24T00:53:03;8.27;;;3.58;;
75073;SDS011;63652;51.526;5.080;2023-07-24T00:55:29;7.50;;;3.22;;
75073;SDS011;63652;51.526;5.080;2023-07-24T00:57:56;8.27;;;3.05;;
75073;SDS011;63652;51.526;5.080;2023-07-24T01:00:23;7.03;;;3.15;;
75073;SDS011;63652;51.526;5.080;2023-07-24T01:02:48;7.35;;;3.28;;
75073;SDS011;63652;51.526;5.080;2023-07-24T01:05:14;6.82;;;3.20;;
75073;SDS011;63652;51.526;5.080;2023-07-24T01:07:42;7.50;;;3.05;;
75073;SDS011;63652;51.526;5.080;2023-07-24T01:10:07;5.80;;;3.22;;
75073;SDS011;63652;51.526;5.080;2023-07-24T01:12:50;8.95;;;3.33;;
75073;SDS011;63652;51.526;5.080;2023-07-24T01:15:22;9.15;;;4.32;;
75073;SDS011;63652;51.526;5.080;2023-07-24T01:17:57;5.65;;;3.05;;
75073;SDS011;63652;51.526;5.080;2023-07-24T01:20:26;7.00;;;3.00;;
75073;SDS011;63652;51.526;5.080;2023-07-24T01:25:55;6.10;;;2.92;;
75073;SDS011;63652;51.526;5.080;2023-07-24T01:28:22;8.00;;;3.42;;
75073;SDS011;63652;51.526;5.080;2023-07-24T01:30:47;6.93;;;3.20;;
75073;SDS011;63652;51.526;5.080;2023-07-24T01:33:13;6.20;;;3.10;;
75073;SDS011;63652;51.526;5.080;2023-07-24T01:35:39;6.35;;;3.03;;
75073;SDS011;63652;51.526;5.080;2023-07-24T01:38:06;8.15;;;3.30;;
75073;SDS011;63652;51.526;5.080;2023-07-24T01:40:31;7.20;;;3.22;;
75073;SDS011;63652;51.526;5.080;2023-07-24T01:42:57;7.38;;;3.28;;
75073;SDS011;63652;51.526;5.080;2023-07-24T01:45:24;5.28;;;2.65;;
75073;SDS011;63652;51.526;5.080;2023-07-24T01:47:50;7.15;;;3.33;;
75073;SDS011;63652;51.526;5.080;2023-07-24T01:50:15;8.32;;;3.53;;
75073;SDS011;63652;51.526;5.080;2023-07-24T01:52:40;7.32;;;3.15;;
75073;SDS011;63652;51.526;5.080;2023-07-24T01:55:06;6.00;;;2.60;;
75073;SDS011;63652;51.526;5.080;2023-07-24T01:57:32;7.35;;;2.95;;
75073;SDS011;63652;51.526;5.080;2023-07-24T01:59:57;6.28;;;2.40;;
75073;SDS011;63652;51.526;5.080;2023-07-24T02:02:22;5.43;;;2.38;;
75073;SDS011;63652;51.526;5.080;2023-07-24T02:04:48;4.95;;;2.58;;
75073;SDS011;63652;51.526;5.080;2023-07-24T02:07:13;7.05;;;2.90;;
75073;SDS011;63652;51.526;5.080;2023-07-24T02:09:38;4.38;;;2.50;;
75073;SDS011;63652;51.526;5.080;2023-07-24T02:12:04;7.78;;;2.85;;
75073;SDS011;63652;51.526;5.080;2023-07-24T02:14:30;5.95;;;2.33;;
75073;SDS011;63652;51.526;5.080;2023-07-24T02:16:55;5.93;;;2.83;;
75073;SDS011;63652;51.526;5.080;2023-07-24T02:19:21;4.97;;;2.25;;
75073;SDS011;63652;51.526;5.080;2023-07-24T02:21:46;4.47;;;2.63;;
75073;SDS011;63652;51.526;5.080;2023-07-24T02:24:12;5.75;;;2.70;;
75073;SDS011;63652;51.526;5.080;2023-07-24T02:26:37;3.80;;;1.92;;
75073;SDS011;63652;51.526;5.080;2023-07-24T02:29:03;6.00;;;2.20;;
75073;SDS011;63652;51.526;5.080;2023-07-24T02:31:28;4.65;;;2.10;;
75073;SDS011;63652;51.526;5.080;2023-07-24T02:33:53;4.25;;;1.95;;
75073;SDS011;63652;51.526;5.080;2023-07-24T02:36:19;4.13;;;2.03;;
75073;SDS011;63652;51.526;5.080;2023-07-24T02:38:45;5.25;;;1.80;;
75073;SDS011;63652;51.526;5.080;2023-07-24T02:41:10;4.65;;;2.03;;
75073;SDS011;63652;51.526;5.080;2023-07-24T02:43:35;5.20;;;2.33;;
75073;SDS011;63652;51.526;5.080;2023-07-24T02:46:01;3.78;;;1.98;;
75073;SDS011;63652;51.526;5.080;2023-07-24T02:48:27;4.53;;;2.00;;
75073;SDS011;63652;51.526;5.080;2023-07-24T02:50:53;4.80;;;2.03;;
75073;SDS011;63652;51.526;5.080;2023-07-24T02:53:18;5.28;;;2.30;;
75073;SDS011;63652;51.526;5.080;2023-07-24T02:55:44;5.80;;;2.65;;
75073;SDS011;63652;51.526;5.080;2023-07-24T02:58:10;5.80;;;2.13;;
75073;SDS011;63652;51.526;5.080;2023-07-24T03:00:37;4.10;;;2.00;;
75073;SDS011;63652;51.526;5.080;2023-07-24T03:03:03;3.65;;;1.77;;
75073;SDS011;63652;51.526;5.080;2023-07-24T03:05:28;4.40;;;2.08;;
75073;SDS011;63652;51.526;5.080;2023-07-24T03:07:53;5.15;;;2.00;;
75073;SDS011;63652;51.526;5.080;2023-07-24T03:10:19;3.22;;;1.67;;
75073;SDS011;63652;51.526;5.080;2023-07-24T03:12:44;5.72;;;2.67;;
75073;SDS011;63652;51.526;5.080;2023-07-24T03:15:10;7.38;;;3.80;;
75073;SDS011;63652;51.526;5.080;2023-07-24T03:17:35;6.18;;;2.72;;
75073;SDS011;63652;51.526;5.080;2023-07-24T03:20:07;4.60;;;2.10;;
75073;SDS011;63652;51.526;5.080;2023-07-24T03:22:38;4.47;;;2.17;;
75073;SDS011;63652;51.526;5.080;2023-07-24T03:25:05;4.40;;;1.98;;
75073;SDS011;63652;51.526;5.080;2023-07-24T03:27:31;4.40;;;2.10;;
75073;SDS011;63652;51.526;5.080;2023-07-24T03:29:56;6.20;;;2.67;;
75073;SDS011;63652;51.526;5.080;2023-07-24T03:32:22;5.60;;;2.58;;
75073;SDS011;63652;51.526;5.080;2023-07-24T03:34:47;5.28;;;2.72;;
75073;SDS011;63652;51.526;5.080;2023-07-24T03:37:12;7.32;;;2.83;;
75073;SDS011;63652;51.526;5.080;2023-07-24T03:39:38;5.93;;;2.28;;
75073;SDS011;63652;51.526;5.080;2023-07-24T03:42:03;5.97;;;2.38;;
75073;SDS011;63652;51.526;5.080;2023-07-24T03:44:29;5.35;;;2.30;;
75073;SDS011;63652;51.526;5.080;2023-07-24T03:46:54;6.28;;;2.60;;
75073;SDS011;63652;51.526;5.080;2023-07-24T03:49:20;5.80;;;3.25;;
75073;SDS011;63652;51.526;5.080;2023-07-24T03:51:45;7.88;;;2.67;;
75073;SDS011;63652;51.526;5.080;2023-07-24T03:54:10;5.72;;;2.60;;
75073;SDS011;63652;51.526;5.080;2023-07-24T03:56:36;6.47;;;2.92;;
75073;SDS011;63652;51.526;5.080;2023-07-24T03:59:01;5.03;;;2.40;;
75073;SDS011;63652;51.526;5.080;2023-07-24T04:01:27;8.80;;;3.13;;
75073;SDS011;63652;51.526;5.080;2023-07-24T04:03:52;9.52;;;2.90;;
75073;SDS011;63652;51.526;5.080;2023-07-24T04:06:17;5.68;;;2.90;;
75073;SDS011;63652;51.526;5.080;2023-07-24T04:08:43;5.68;;;2.90;;
75073;SDS011;63652;51.526;5.080;2023-07-24T04:11:08;5.88;;;2.58;;
75073;SDS011;63652;51.526;5.080;2023-07-24T04:13:34;5.68;;;3.17;;
75073;SDS011;63652;51.526;5.080;2023-07-24T04:15:59;7.93;;;3.47;;
75073;SDS011;63652;51.526;5.080;2023-07-24T04:18:24;4.97;;;2.95;;
75073;SDS011;63652;51.526;5.080;2023-07-24T04:20:50;6.97;;;3.58;;
75073;SDS011;63652;51.526;5.080;2023-07-24T04:23:15;8.38;;;3.63;;
75073;SDS011;63652;51.526;5.080;2023-07-24T04:25:40;8.63;;;3.92;;
75073;SDS011;63652;51.526;5.080;2023-07-24T04:28:06;9.73;;;3.95;;
75073;SDS011;63652;51.526;5.080;2023-07-24T04:30:32;7.13;;;3.38;;
75073;SDS011;63652;51.526;5.080;2023-07-24T04:32:57;8.88;;;4.35;;
75073;SDS011;63652;51.526;5.080;2023-07-24T04:35:23;7.97;;;4.00;;
75073;SDS011;63652;51.526;5.080;2023-07-24T04:37:48;8.20;;;3.35;;
75073;SDS011;63652;51.526;5.080;2023-07-24T04:40:16;7.30;;;3.50;;
75073;SDS011;63652;51.526;5.080;2023-07-24T04:42:41;9.75;;;3.63;;
75073;SDS011;63652;51.526;5.080;2023-07-24T04:45:07;8.55;;;3.75;;
75073;SDS011;63652;51.526;5.080;2023-07-24T04:47:33;9.93;;;4.10;;
75073;SDS011;63652;51.526;5.080;2023-07-24T04:49:58;8.35;;;4.05;;
75073;SDS011;63652;51.526;5.080;2023-07-24T04:52:23;6.03;;;2.83;;
75073;SDS011;63652;51.526;5.080;2023-07-24T04:54:49;10.27;;;4.30;;
75073;SDS011;63652;51.526;5.080;2023-07-24T04:57:14;10.05;;;4.10;;
75073;SDS011;63652;51.526;5.080;2023-07-24T04:59:40;6.00;;;3.10;;
75073;SDS011;63652;51.526;5.080;2023-07-24T05:02:05;8.10;;;3.90;;
75073;SDS011;63652;51.526;5.080;2023-07-24T05:04:30;6.75;;;3.65;;
75073;SDS011;63652;51.526;5.080;2023-07-24T05:06:56;6.95;;;3.45;;
75073;SDS011;63652;51.526;5.080;2023-07-24T05:09:21;6.72;;;3.35;;
75073;SDS011;63652;51.526;5.080;2023-07-24T05:11:46;7.68;;;3.63;;
75073;SDS011;63652;51.526;5.080;2023-07-24T05:14:12;7.35;;;3.35;;
75073;SDS011;63652;51.526;5.080;2023-07-24T05:16:37;8.55;;;4.28;;
75073;SDS011;63652;51.526;5.080;2023-07-24T05:19:03;6.95;;;3.90;;
75073;SDS011;63652;51.526;5.080;2023-07-24T05:21:28;9.57;;;4.13;;
75073;SDS011;63652;51.526;5.080;2023-07-24T05:23:54;10.32;;;3.88;;
75073;SDS011;63652;51.526;5.080;2023-07-24T05:26:19;8.68;;;4.05;;
75073;SDS011;63652;51.526;5.080;2023-07-24T05:28:44;10.63;;;4.95;;
75073;SDS011;63652;51.526;5.080;2023-07-24T05:31:10;11.15;;;4.28;;
75073;SDS011;63652;51.526;5.080;2023-07-24T05:33:36;9.05;;;3.97;;
75073;SDS011;63652;51.526;5.080;2023-07-24T05:36:02;9.57;;;3.78;;
75073;SDS011;63652;51.526;5.080;2023-07-24T05:38:28;8.10;;;4.07;;
75073;SDS011;63652;51.526;5.080;2023-07-24T05:41:00;9.88;;;3.72;;
75073;SDS011;63652;51.526;5.080;2023-07-24T05:43:27;8.18;;;4.18;;
75073;SDS011;63652;51.526;5.080;2023-07-24T05:45:54;8.77;;;4.45;;
75073;SDS011;63652;51.526;5.080;2023-07-24T05:48:20;12.68;;;4.80;;
75073;SDS011;63652;51.526;5.080;2023-07-24T05:50:45;11.73;;;4.95;;
75073;SDS011;63652;51.526;5.080;2023-07-24T05:53:10;9.02;;;4.40;;
75073;SDS011;63652;51.526;5.080;2023-07-24T05:55:36;12.65;;;5.13;;
75073;SDS011;63652;51.526;5.080;2023-07-24T05:58:01;10.32;;;4.75;;
75073;SDS011;63652;51.526;5.080;2023-07-24T06:00:27;11.55;;;4.55;;
75073;SDS011;63652;51.526;5.080;2023-07-24T06:02:53;12.05;;;4.68;;
75073;SDS011;63652;51.526;5.080;2023-07-24T06:05:19;8.80;;;4.80;;
75073;SDS011;63652;51.526;5.080;2023-07-24T06:07:45;9.30;;;5.15;;
75073;SDS011;63652;51.526;5.080;2023-07-24T06:10:11;10.90;;;5.43;;
75073;SDS011;63652;51.526;5.080;2023-07-24T06:12:36;12.13;;;5.53;;
75073;SDS011;63652;51.526;5.080;2023-07-24T06:15:01;13.27;;;5.43;;
75073;SDS011;63652;51.526;5.080;2023-07-24T06:17:28;10.38;;;5.18;;
75073;SDS011;63652;51.526;5.080;2023-07-24T06:19:53;11.30;;;5.13;;
75073;SDS011;63652;51.526;5.080;2023-07-24T06:22:19;10.40;;;5.32;;
75073;SDS011;63652;51.526;5.080;2023-07-24T06:24:44;10.90;;;5.25;;
75073;SDS011;63652;51.526;5.080;2023-07-24T06:27:10;9.45;;;4.95;;
75073;SDS011;63652;51.526;5.080;2023-07-24T06:29:35;9.80;;;4.95;;
75073;SDS011;63652;51.526;5.080;2023-07-24T06:32:01;8.95;;;5.57;;
75073;SDS011;63652;51.526;5.080;2023-07-24T06:34:26;11.73;;;4.93;;
75073;SDS011;63652;51.526;5.080;2023-07-24T06:36:52;9.93;;;5.13;;
75073;SDS011;63652;51.526;5.080;2023-07-24T06:39:17;10.25;;;4.85;;
75073;SDS011;63652;51.526;5.080;2023-07-24T06:41:42;14.10;;;5.10;;
75073;SDS011;63652;51.526;5.080;2023-07-24T06:44:08;9.23;;;4.93;;
75073;SDS011;63652;51.526;5.080;2023-07-24T06:46:33;7.13;;;3.60;;
75073;SDS011;63652;51.526;5.080;2023-07-24T06:48:58;10.18;;;3.92;;
75073;SDS011;63652;51.526;5.080;2023-07-24T06:51:24;8.50;;;4.28;;
75073;SDS011;63652;51.526;5.080;2023-07-24T06:53:49;9.55;;;4.50;;
75073;SDS011;63652;51.526;5.080;2023-07-24T06:56:15;8.60;;;4.30;;
75073;SDS011;63652;51.526;5.080;2023-07-24T06:58:40;9.98;;;4.40;;
75073;SDS011;63652;51.526;5.080;2023-07-24T07:01:06;9.60;;;4.60;;
75073;SDS011;63652;51.526;5.080;2023-07-24T07:03:32;8.75;;;4.47;;
75073;SDS011;63652;51.526;5.080;2023-07-24T07:06:00;7.95;;;4.03;;
75073;SDS011;63652;51.526;5.080;2023-07-24T07:08:26;9.98;;;4.82;;
75073;SDS011;63652;51.526;5.080;2023-07-24T07:10:55;11.73;;;5.70;;
75073;SDS011;63652;51.526;5.080;2023-07-24T07:13:21;11.88;;;5.38;;
75073;SDS011;63652;51.526;5.080;2023-07-24T07:15:47;8.27;;;4.63;;
75073;SDS011;63652;51.526;5.080;2023-07-24T07:18:12;11.57;;;5.32;;
75073;SDS011;63652;51.526;5.080;2023-07-24T07:20:38;12.80;;;6.30;;
75073;SDS011;63652;51.526;5.080;2023-07-24T07:23:03;11.38;;;4.78;;
75073;SDS011;63652;51.526;5.080;2023-07-24T07:25:29;16.20;;;5.60;;
75073;SDS011;63652;51.526;5.080;2023-07-24T07:27:54;11.10;;;5.13;;
75073;SDS011;63652;51.526;5.080;2023-07-24T07:30:20;9.90;;;5.10;;
75073;SDS011;63652;51.526;5.080;2023-07-24T07:32:45;11.45;;;5.80;;
75073;SDS011;63652;51.526;5.080;2023-07-24T07:35:11;14.82;;;6.88;;
75073;SDS011;63652;51.526;5.080;2023-07-24T07:37:36;13.00;;;6.05;;
75073;SDS011;63652;51.526;5.080;2023-07-24T07:40:02;12.25;;;5.93;;
75073;SDS011;63652;51.526;5.080;2023-07-24T07:42:28;11.18;;;6.63;;
75073;SDS011;63652;51.526;5.080;2023-07-24T07:44:53;12.43;;;6.63;;
75073;SDS011;63652;51.526;5.080;2023-07-24T07:47:19;10.98;;;6.25;;
75073;SDS011;63652;51.526;5.080;2023-07-24T07:49:44;12.23;;;6.50;;
75073;SDS011;63652;51.526;5.080;2023-07-24T07:52:09;14.80;;;6.85;;
75073;SDS011;63652;51.526;5.080;2023-07-24T07:54:35;11.55;;;6.68;;
75073;SDS011;63652;51.526;5.080;2023-07-24T07:57:00;11.38;;;6.65;;
75073;SDS011;63652;51.526;5.080;2023-07-24T07:59:26;11.35;;;6.65;;
75073;SDS011;63652;51.526;5.080;2023-07-24T08:01:51;12.18;;;7.85;;
75073;SDS011;63652;51.526;5.080;2023-07-24T08:04:17;12.63;;;7.50;;
75073;SDS011;63652;51.526;5.080;2023-07-24T08:06:43;11.13;;;6.25;;
75073;SDS011;63652;51.526;5.080;2023-07-24T08:09:08;10.43;;;6.50;;
75073;SDS011;63652;51.526;5.080;2023-07-24T08:11:34;11.32;;;6.65;;
75073;SDS011;63652;51.526;5.080;2023-07-24T08:13:59;12.05;;;7.55;;
75073;SDS011;63652;51.526;5.080;2023-07-24T08:16:25;11.80;;;7.00;;
75073;SDS011;63652;51.526;5.080;2023-07-24T08:18:50;11.88;;;6.90;;
75073;SDS011;63652;51.526;5.080;2023-07-24T08:21:15;14.07;;;7.53;;
75073;SDS011;63652;51.526;5.080;2023-07-24T08:23:41;15.02;;;6.65;;
75073;SDS011;63652;51.526;5.080;2023-07-24T08:26:07;11.93;;;6.25;;
75073;SDS011;63652;51.526;5.080;2023-07-24T08:28:32;12.75;;;6.50;;
75073;SDS011;63652;51.526;5.080;2023-07-24T08:30:59;12.70;;;6.78;;
75073;SDS011;63652;51.526;5.080;2023-07-24T08:33:26;12.98;;;7.15;;
75073;SDS011;63652;51.526;5.080;2023-07-24T08:36:01;15.15;;;7.43;;
75073;SDS011;63652;51.526;5.080;2023-07-24T08:38:30;11.73;;;6.97;;
75073;SDS011;63652;51.526;5.080;2023-07-24T08:43:28;9.98;;;5.53;;
75073;SDS011;63652;51.526;5.080;2023-07-24T08:45:55;12.32;;;5.85;;
75073;SDS011;63652;51.526;5.080;2023-07-24T08:48:21;12.20;;;6.85;;
75073;SDS011;63652;51.526;5.080;2023-07-24T08:50:47;9.77;;;5.53;;
75073;SDS011;63652;51.526;5.080;2023-07-24T08:53:12;11.30;;;6.00;;
75073;SDS011;63652;51.526;5.080;2023-07-24T08:55:38;11.68;;;5.72;;
75073;SDS011;63652;51.526;5.080;2023-07-24T08:58:04;10.73;;;6.65;;
75073;SDS011;63652;51.526;5.080;2023-07-24T09:00:32;11.73;;;6.45;;
75073;SDS011;63652;51.526;5.080;2023-07-24T09:02:57;11.40;;;6.35;;
75073;SDS011;63652;51.526;5.080;2023-07-24T09:05:23;12.85;;;6.47;;
75073;SDS011;63652;51.526;5.080;2023-07-24T09:07:48;10.30;;;6.05;;
75073;SDS011;63652;51.526;5.080;2023-07-24T09:10:14;11.00;;;6.47;;
75073;SDS011;63652;51.526;5.080;2023-07-24T09:12:41;13.27;;;6.75;;
75073;SDS011;63652;51.526;5.080;2023-07-24T09:15:07;11.13;;;6.85;;
75073;SDS011;63652;51.526;5.080;2023-07-24T09:17:32;11.93;;;6.03;;
75073;SDS011;63652;51.526;5.080;2023-07-24T09:19:58;11.73;;;6.22;;
75073;SDS011;63652;51.526;5.080;2023-07-24T09:22:23;10.63;;;5.70;;
75073;SDS011;63652;51.526;5.080;2023-07-24T09:24:55;10.60;;;5.78;;
75073;SDS011;63652;51.526;5.080;2023-07-24T09:29:49;9.32;;;5.47;;
75073;SDS011;63652;51.526;5.080;2023-07-24T09:32:19;11.30;;;6.95;;
75073;SDS011;63652;51.526;5.080;2023-07-24T09:34:46;11.23;;;6.45;;
75073;SDS011;63652;51.526;5.080;2023-07-24T09:37:22;11.23;;;6.35;;
75073;SDS011;63652;51.526;5.080;2023-07-24T09:39:55;8.88;;;5.40;;
75073;SDS011;63652;51.526;5.080;2023-07-24T09:42:27;10.02;;;4.85;;
75073;SDS011;63652;51.526;5.080;2023-07-24T09:45:00;7.65;;;4.40;;
75073;SDS011;63652;51.526;5.080;2023-07-24T09:47:28;7.93;;;4.85;;
75073;SDS011;63652;51.526;5.080;2023-07-24T09:49:54;7.47;;;4.22;;
75073;SDS011;63652;51.526;5.080;2023-07-24T09:52:20;8.02;;;4.28;;
75073;SDS011;63652;51.526;5.080;2023-07-24T09:54:55;7.43;;;4.03;;
75073;SDS011;63652;51.526;5.080;2023-07-24T09:57:23;9.93;;;5.03;;
75073;SDS011;63652;51.526;5.080;2023-07-24T09:59:49;9.13;;;4.65;;
75073;SDS011;63652;51.526;5.080;2023-07-24T10:02:14;7.95;;;4.68;;
75073;SDS011;63652;51.526;5.080;2023-07-24T10:04:40;8.13;;;4.82;;
75073;SDS011;63652;51.526;5.080;2023-07-24T10:07:06;8.55;;;5.18;;
75073;SDS011;63652;51.526;5.080;2023-07-24T10:09:32;7.75;;;4.78;;
75073;SDS011;63652;51.526;5.080;2023-07-24T10:11:58;8.93;;;5.45;;
75073;SDS011;63652;51.526;5.080;2023-07-24T10:14:24;10.20;;;5.40;;
75073;SDS011;63652;51.526;5.080;2023-07-24T10:16:50;8.50;;;5.85;;
75073;SDS011;63652;51.526;5.080;2023-07-24T10:19:20;11.35;;;5.57;;
75073;SDS011;63652;51.526;5.080;2023-07-24T10:21:46;12.10;;;7.43;;
75073;SDS011;63652;51.526;5.080;2023-07-24T10:24:12;13.50;;;6.22;;
75073;SDS011;63652;51.526;5.080;2023-07-24T10:26:37;12.98;;;7.10;;
75073;SDS011;63652;51.526;5.080;2023-07-24T10:29:03;11.95;;;6.82;;
75073;SDS011;63652;51.526;5.080;2023-07-24T10:31:28;10.95;;;6.40;;
75073;SDS011;63652;51.526;5.080;2023-07-24T10:33:55;12.43;;;6.82;;
75073;SDS011;63652;51.526;5.080;2023-07-24T10:36:22;13.90;;;6.93;;
75073;SDS011;63652;51.526;5.080;2023-07-24T10:38:54;10.10;;;6.30;;
75073;SDS011;63652;51.526;5.080;2023-07-24T10:41:21;12.30;;;6.68;;
75073;SDS011;63652;51.526;5.080;2023-07-24T10:43:48;9.55;;;5.82;;
75073;SDS011;63652;51.526;5.080;2023-07-24T10:46:15;10.27;;;6.28;;
75073;SDS011;63652;51.526;5.080;2023-07-24T10:48:42;13.48;;;5.95;;
75073;SDS011;63652;51.526;5.080;2023-07-24T10:51:09;10.38;;;6.28;;
75073;SDS011;63652;51.526;5.080;2023-07-24T10:53:38;10.05;;;6.30;;
75073;SDS011;63652;51.526;5.080;2023-07-24T10:56:12;10.95;;;6.50;;
75073;SDS011;63652;51.526;5.080;2023-07-24T10:58:38;11.77;;;6.90;;
75073;SDS011;63652;51.526;5.080;2023-07-24T11:01:07;12.95;;;8.07;;
75073;SDS011;63652;51.526;5.080;2023-07-24T11:03:37;10.77;;;7.18;;
75073;SDS011;63652;51.526;5.080;2023-07-24T11:06:11;13.00;;;8.05;;
75073;SDS011;63652;51.526;5.080;2023-07-24T11:08:41;11.32;;;7.53;;
75073;SDS011;63652;51.526;5.080;2023-07-24T11:11:07;11.88;;;7.50;;
75073;SDS011;63652;51.526;5.080;2023-07-24T11:13:32;10.52;;;6.70;;
75073;SDS011;63652;51.526;5.080;2023-07-24T11:16:03;11.23;;;7.35;;
75073;SDS011;63652;51.526;5.080;2023-07-24T11:18:30;10.45;;;6.35;;
75073;SDS011;63652;51.526;5.080;2023-07-24T11:20:55;10.35;;;6.55;;
75073;SDS011;63652;51.526;5.080;2023-07-24T11:23:21;9.90;;;6.75;;
75073;SDS011;63652;51.526;5.080;2023-07-24T11:25:53;10.32;;;5.80;;
75073;SDS011;63652;51.526;5.080;2023-07-24T11:28:19;10.32;;;6.10;;
75073;SDS011;63652;51.526;5.080;2023-07-24T11:30:45;9.82;;;6.07;;
75073;SDS011;63652;51.526;5.080;2023-07-24T11:33:11;10.63;;;6.32;;
75073;SDS011;63652;51.526;5.080;2023-07-24T11:35:37;12.23;;;6.88;;
75073;SDS011;63652;51.526;5.080;2023-07-24T11:38:09;11.50;;;7.32;;
75073;SDS011;63652;51.526;5.080;2023-07-24T11:40:36;9.85;;;6.70;;
75073;SDS011;63652;51.526;5.080;2023-07-24T11:43:03;9.63;;;6.65;;
75073;SDS011;63652;51.526;5.080;2023-07-24T11:45:29;12.23;;;7.15;;
75073;SDS011;63652;51.526;5.080;2023-07-24T11:47:55;11.27;;;6.45;;
75073;SDS011;63652;51.526;5.080;2023-07-24T11:50:21;10.27;;;6.35;;
75073;SDS011;63652;51.526;5.080;2023-07-24T11:52:48;12.15;;;6.80;;
75073;SDS011;63652;51.526;5.080;2023-07-24T11:55:19;12.05;;;6.13;;
75073;SDS011;63652;51.526;5.080;2023-07-24T11:57:55;11.25;;;6.63;;
75073;SDS011;63652;51.526;5.080;2023-07-24T12:00:24;10.95;;;6.78;;
75073;SDS011;63652;51.526;5.080;2023-07-24T12:02:50;11.00;;;6.43;;
75073;SDS011;63652;51.526;5.080;2023-07-24T12:05:16;14.38;;;8.32;;
75073;SDS011;63652;51.526;5.080;2023-07-24T12:07:42;17.05;;;8.48;;
75073;SDS011;63652;51.526;5.080;2023-07-24T12:10:12;13.25;;;7.70;;
75073;SDS011;63652;51.526;5.080;2023-07-24T12:12:44;12.73;;;7.68;;
75073;SDS011;63652;51.526;5.080;2023-07-24T12:15:12;13.98;;;8.75;;
75073;SDS011;63652;51.526;5.080;2023-07-24T12:17:38;9.15;;;6.10;;
75073;SDS011;63652;51.526;5.080;2023-07-24T12:20:04;11.38;;;6.93;;
75073;SDS011;63652;51.526;5.080;2023-07-24T12:22:34;11.82;;;7.03;;
75073;SDS011;63652;51.526;5.080;2023-07-24T12:25:01;12.88;;;7.68;;
75073;SDS011;63652;51.526;5.080;2023-07-24T12:27:27;10.95;;;7.13;;
75073;SDS011;63652;51.526;5.080;2023-07-24T12:29:52;14.10;;;7.15;;
75073;SDS011;63652;51.526;5.080;2023-07-24T12:32:18;11.00;;;6.80;;
75073;SDS011;63652;51.526;5.080;2023-07-24T12:34:47;14.65;;;8.50;;
75073;SDS011;63652;51.526;5.080;2023-07-24T12:37:12;11.68;;;7.15;;
75073;SDS011;63652;51.526;5.080;2023-07-24T12:39:38;13.45;;;7.75;;
75073;SDS011;63652;51.526;5.080;2023-07-24T12:42:04;13.07;;;7.47;;
75073;SDS011;63652;51.526;5.080;2023-07-24T12:44:30;10.73;;;6.25;;
75073;SDS011;63652;51.526;5.080;2023-07-24T12:46:55;10.50;;;6.25;;
75073;SDS011;63652;51.526;5.080;2023-07-24T12:49:21;11.27;;;7.45;;
75073;SDS011;63652;51.526;5.080;2023-07-24T12:51:46;11.00;;;6.20;;
75073;SDS011;63652;51.526;5.080;2023-07-24T12:54:11;9.32;;;5.47;;
75073;SDS011;63652;51.526;5.080;2023-07-24T12:56:37;12.38;;;6.53;;
75073;SDS011;63652;51.526;5.080;2023-07-24T12:59:02;10.65;;;6.63;;
75073;SDS011;63652;51.526;5.080;2023-07-24T13:01:28;13.82;;;7.20;;
75073;SDS011;63652;51.526;5.080;2023-07-24T13:03:54;9.10;;;5.95;;
75073;SDS011;63652;51.526;5.080;2023-07-24T13:06:20;10.32;;;5.45;;
75073;SDS011;63652;51.526;5.080;2023-07-24T13:08:46;8.98;;;6.03;;
75073;SDS011;63652;51.526;5.080;2023-07-24T13:11:11;12.02;;;6.90;;
75073;SDS011;63652;51.526;5.080;2023-07-24T13:13:36;10.40;;;5.47;;
75073;SDS011;63652;51.526;5.080;2023-07-24T13:16:02;10.93;;;5.20;;
75073;SDS011;63652;51.526;5.080;2023-07-24T13:18:28;10.25;;;6.03;;
75073;SDS011;63652;51.526;5.080;2023-07-24T13:20:54;9.85;;;6.15;;
75073;SDS011;63652;51.526;5.080;2023-07-24T13:23:19;10.07;;;5.80;;
75073;SDS011;63652;51.526;5.080;2023-07-24T13:25:44;10.85;;;6.68;;
75073;SDS011;63652;51.526;5.080;2023-07-24T13:28:10;10.00;;;6.53;;
75073;SDS011;63652;51.526;5.080;2023-07-24T13:30:35;11.60;;;6.50;;
75073;SDS011;63652;51.526;5.080;2023-07-24T13:33:01;11.75;;;8.02;;
75073;SDS011;63652;51.526;5.080;2023-07-24T13:35:26;12.23;;;6.88;;
75073;SDS011;63652;51.526;5.080;2023-07-24T13:37:52;11.55;;;6.80;;
75073;SDS011;63652;51.526;5.080;2023-07-24T13:40:17;13.70;;;6.05;;
75073;SDS011;63652;51.526;5.080;2023-07-24T13:42:42;9.35;;;4.82;;
75073;SDS011;63652;51.526;5.080;2023-07-24T13:45:08;7.13;;;4.95;;
75073;SDS011;63652;51.526;5.080;2023-07-24T13:47:33;10.20;;;4.97;;
75073;SDS011;63652;51.526;5.080;2023-07-24T13:49:59;9.07;;;5.07;;
75073;SDS011;63652;51.526;5.080;2023-07-24T13:52:28;12.93;;;5.20;;
75073;SDS011;63652;51.526;5.080;2023-07-24T13:54:53;7.03;;;4.75;;
75073;SDS011;63652;51.526;5.080;2023-07-24T13:57:19;10.75;;;4.60;;
75073;SDS011;63652;51.526;5.080;2023-07-24T13:59:44;10.52;;;4.00;;
75073;SDS011;63652;51.526;5.080;2023-07-24T14:02:09;7.47;;;4.00;;
75073;SDS011;63652;51.526;5.080;2023-07-24T14:04:35;7.85;;;3.60;;
75073;SDS011;63652;51.526;5.080;2023-07-24T14:07:00;7.45;;;3.22;;
75073;SDS011;63652;51.526;5.080;2023-07-24T14:09:26;4.85;;;2.95;;
75073;SDS011;63652;51.526;5.080;2023-07-24T14:11:51;4.40;;;2.33;;
75073;SDS011;63652;51.526;5.080;2023-07-24T14:14:17;7.88;;;3.20;;
75073;SDS011;63652;51.526;5.080;2023-07-24T14:16:43;5.22;;;2.58;;
75073;SDS011;63652;51.526;5.080;2023-07-24T14:19:08;6.45;;;3.40;;
75073;SDS011;63652;51.526;5.080;2023-07-24T14:21:34;6.53;;;2.92;;
75073;SDS011;63652;51.526;5.080;2023-07-24T14:23:59;7.13;;;3.15;;
75073;SDS011;63652;51.526;5.080;2023-07-24T14:26:24;5.07;;;3.17;;
75073;SDS011;63652;51.526;5.080;2023-07-24T14:28:50;5.82;;;3.65;;
75073;SDS011;63652;51.526;5.080;2023-07-24T14:31:15;7.55;;;4.03;;
75073;SDS011;63652;51.526;5.080;2023-07-24T14:33:41;7.82;;;4.03;;
75073;SDS011;63652;51.526;5.080;2023-07-24T14:36:06;9.48;;;4.03;;
75073;SDS011;63652;51.526;5.080;2023-07-24T14:38:31;6.18;;;3.45;;
75073;SDS011;63652;51.526;5.080;2023-07-24T14:40:57;8.02;;;3.42;;
75073;SDS011;63652;51.526;5.080;2023-07-24T14:43:22;7.70;;;3.80;;
75073;SDS011;63652;51.526;5.080;2023-07-24T14:45:48;6.40;;;3.50;;